sensor_id;sensor_type;location;lat;lon;timestamp;temperature;humidity
29539;DHT22;16482;51.046;4.498;2022-11-15T00:00:29;23.10;40.40
29539;DHT22;16482;51.046;4.498;2022-11-15T00:02:55;23.20;40.50
29539;DHT22;16482;51.046;4.498;2022-11-15T00:05:21;23.10;39.90
29539;DHT22;16482;51.046;4.498;2022-11-15T00:07:47;23.20;40.30
29539;DHT22;16482;51.046;4.498;2022-11-15T00:10:13;23.20;40.00
29539;DHT22;16482;51.046;4.498;2022-11-15T00:12:38;23.10;40.10
29539;DHT22;16482;51.046;4.498;2022-11-15T00:15:05;23.10;40.20
29539;DHT22;16482;51.046;4.498;2022-11-15T00:17:31;23.10;40.30
29539;DHT22;16482;51.046;4.498;2022-11-15T00:19:56;23.10;40.50
29539;DHT22;16482;51.046;4.498;2022-11-15T00:22:22;23.10;40.60
29539;DHT22;16482;51.046;4.498;2022-11-15T00:24:48;23.00;40.70
29539;DHT22;16482;51.046;4.498;2022-11-15T00:27:14;23.00;40.90
29539;DHT22;16482;51.046;4.498;2022-11-15T00:29:39;23.00;41.00
29539;DHT22;16482;51.046;4.498;2022-11-15T00:32:09;23.00;41.10
29539;DHT22;16482;51.046;4.498;2022-11-15T00:34:36;23.00;41.20
29539;DHT22;16482;51.046;4.498;2022-11-15T00:37:01;23.00;41.30
29539;DHT22;16482;51.046;4.498;2022-11-15T00:39:27;23.00;41.50
29539;DHT22;16482;51.046;4.498;2022-11-15T00:41:53;23.00;41.60
29539;DHT22;16482;51.046;4.498;2022-11-15T00:44:19;23.00;41.80
29539;DHT22;16482;51.046;4.498;2022-11-15T00:46:45;23.00;41.80
29539;DHT22;16482;51.046;4.498;2022-11-15T00:49:10;23.00;41.90
29539;DHT22;16482;51.046;4.498;2022-11-15T00:51:36;23.00;42.00
29539;DHT22;16482;51.046;4.498;2022-11-15T00:54:02;23.00;42.00
29539;DHT22;16482;51.046;4.498;2022-11-15T00:56:28;23.00;42.20
29539;DHT22;16482;51.046;4.498;2022-11-15T00:58:54;23.00;42.20
29539;DHT22;16482;51.046;4.498;2022-11-15T01:01:21;23.00;42.40
29539;DHT22;16482;51.046;4.498;2022-11-15T01:03:47;23.00;42.40
29539;DHT22;16482;51.046;4.498;2022-11-15T01:06:12;23.00;42.60
29539;DHT22;16482;51.046;4.498;2022-11-15T01:08:39;23.00;42.60
29539;DHT22;16482;51.046;4.498;2022-11-15T01:11:08;22.90;42.60
29539;DHT22;16482;51.046;4.498;2022-11-15T01:13:35;22.90;42.70
29539;DHT22;16482;51.046;4.498;2022-11-15T01:16:09;22.90;42.80
29539;DHT22;16482;51.046;4.498;2022-11-15T01:18:35;22.90;42.90
29539;DHT22;16482;51.046;4.498;2022-11-15T01:21:13;22.90;43.10
29539;DHT22;16482;51.046;4.498;2022-11-15T01:23:41;22.90;43.10
29539;DHT22;16482;51.046;4.498;2022-11-15T01:26:14;22.90;43.10
29539;DHT22;16482;51.046;4.498;2022-11-15T01:28:41;22.90;43.20
29539;DHT22;16482;51.046;4.498;2022-11-15T01:31:13;22.90;43.30
29539;DHT22;16482;51.046;4.498;2022-11-15T01:33:44;22.90;43.40
29539;DHT22;16482;51.046;4.498;2022-11-15T01:36:16;22.80;43.40
29539;DHT22;16482;51.046;4.498;2022-11-15T01:38:45;22.90;43.50
29539;DHT22;16482;51.046;4.498;2022-11-15T01:41:18;22.80;43.60
29539;DHT22;16482;51.046;4.498;2022-11-15T01:43:46;22.80;43.70
29539;DHT22;16482;51.046;4.498;2022-11-15T01:48:43;22.80;43.70
29539;DHT22;16482;51.046;4.498;2022-11-15T01:51:13;22.80;43.90
29539;DHT22;16482;51.046;4.498;2022-11-15T01:53:43;22.70;43.80
29539;DHT22;16482;51.046;4.498;2022-11-15T01:56:15;22.70;43.90
29539;DHT22;16482;51.046;4.498;2022-11-15T01:58:45;22.70;44.00
29539;DHT22;16482;51.046;4.498;2022-11-15T02:01:12;22.70;44.00
29539;DHT22;16482;51.046;4.498;2022-11-15T02:06:12;22.70;44.20
29539;DHT22;16482;51.046;4.498;2022-11-15T02:08:41;22.70;44.30
29539;DHT22;16482;51.046;4.498;2022-11-15T02:11:15;22.70;44.30
29539;DHT22;16482;51.046;4.498;2022-11-15T02:13:41;22.70;44.30
29539;DHT22;16482;51.046;4.498;2022-11-15T02:16:33;22.70;44.30
29539;DHT22;16482;51.046;4.498;2022-11-15T02:21:46;22.70;44.40
29539;DHT22;16482;51.046;4.498;2022-11-15T02:24:23;22.70;44.50
29539;DHT22;16482;51.046;4.498;2022-11-15T02:32:52;22.60;44.50
29539;DHT22;16482;51.046;4.498;2022-11-15T02:38:20;22.70;44.60
29539;DHT22;16482;51.046;4.498;2022-11-15T02:40:56;22.60;44.70
29539;DHT22;16482;51.046;4.498;2022-11-15T02:43:36;22.60;44.80
29539;DHT22;16482;51.046;4.498;2022-11-15T02:46:22;22.60;44.70
29539;DHT22;16482;51.046;4.498;2022-11-15T02:49:11;22.60;44.90
29539;DHT22;16482;51.046;4.498;2022-11-15T02:51:38;22.50;44.90
29539;DHT22;16482;51.046;4.498;2022-11-15T02:54:05;22.50;44.90
29539;DHT22;16482;51.046;4.498;2022-11-15T02:56:31;22.50;44.90
29539;DHT22;16482;51.046;4.498;2022-11-15T03:04:53;22.60;45.00
29539;DHT22;16482;51.046;4.498;2022-11-15T03:07:47;22.60;45.00
29539;DHT22;16482;51.046;4.498;2022-11-15T03:13:25;22.50;45.10
29539;DHT22;16482;51.046;4.498;2022-11-15T03:16:03;22.50;45.20
29539;DHT22;16482;51.046;4.498;2022-11-15T03:18:35;22.50;45.20
29539;DHT22;16482;51.046;4.498;2022-11-15T03:21:05;22.60;45.20
29539;DHT22;16482;51.046;4.498;2022-11-15T03:23:33;22.50;45.10
29539;DHT22;16482;51.046;4.498;2022-11-15T03:26:00;22.50;45.10
29539;DHT22;16482;51.046;4.498;2022-11-15T03:28:37;22.50;45.10
29539;DHT22;16482;51.046;4.498;2022-11-15T03:31:04;22.50;45.20
29539;DHT22;16482;51.046;4.498;2022-11-15T03:33:51;22.50;45.20
29539;DHT22;16482;51.046;4.498;2022-11-15T03:36:20;22.50;45.20
29539;DHT22;16482;51.046;4.498;2022-11-15T03:38:47;22.50;45.20
29539;DHT22;16482;51.046;4.498;2022-11-15T03:41:23;22.50;45.60
29539;DHT22;16482;51.046;4.498;2022-11-15T03:44:10;22.50;45.20
29539;DHT22;16482;51.046;4.498;2022-11-15T03:49:36;22.50;45.20
29539;DHT22;16482;51.046;4.498;2022-11-15T03:52:04;22.50;45.20
29539;DHT22;16482;51.046;4.498;2022-11-15T03:54:30;22.50;45.20
29539;DHT22;16482;51.046;4.498;2022-11-15T03:56:56;22.50;45.30
29539;DHT22;16482;51.046;4.498;2022-11-15T03:59:22;22.50;45.30
29539;DHT22;16482;51.046;4.498;2022-11-15T04:01:48;22.50;45.20
29539;DHT22;16482;51.046;4.498;2022-11-15T04:04:14;22.50;45.20
29539;DHT22;16482;51.046;4.498;2022-11-15T04:06:40;22.50;45.20
29539;DHT22;16482;51.046;4.498;2022-11-15T04:09:05;22.50;45.20
29539;DHT22;16482;51.046;4.498;2022-11-15T04:11:31;22.50;45.20
29539;DHT22;16482;51.046;4.498;2022-11-15T04:13:57;22.50;45.20
29539;DHT22;16482;51.046;4.498;2022-11-15T04:16:23;22.50;45.20
29539;DHT22;16482;51.046;4.498;2022-11-15T04:18:49;22.50;45.20
29539;DHT22;16482;51.046;4.498;2022-11-15T04:21:34;22.50;45.20
29539;DHT22;16482;51.046;4.498;2022-11-15T04:24:19;22.50;45.10
29539;DHT22;16482;51.046;4.498;2022-11-15T04:26:44;22.50;45.20
29539;DHT22;16482;51.046;4.498;2022-11-15T04:29:10;22.50;45.10
29539;DHT22;16482;51.046;4.498;2022-11-15T04:31:54;22.50;45.20
29539;DHT22;16482;51.046;4.498;2022-11-15T04:34:20;22.50;45.10
29539;DHT22;16482;51.046;4.498;2022-11-15T04:36:46;22.50;45.10
29539;DHT22;16482;51.046;4.498;2022-11-15T04:39:30;22.40;45.00
29539;DHT22;16482;51.046;4.498;2022-11-15T04:41:56;22.40;45.00
29539;DHT22;16482;51.046;4.498;2022-11-15T04:44:22;22.40;45.00
29539;DHT22;16482;51.046;4.498;2022-11-15T04:46:47;22.40;45.00
29539;DHT22;16482;51.046;4.498;2022-11-15T04:49:13;22.50;45.00
29539;DHT22;16482;51.046;4.498;2022-11-15T04:51:39;22.40;44.90
29539;DHT22;16482;51.046;4.498;2022-11-15T04:54:05;22.50;44.90
29539;DHT22;16482;51.046;4.498;2022-11-15T04:56:31;22.40;44.90
29539;DHT22;16482;51.046;4.498;2022-11-15T04:58:56;22.40;44.90
29539;DHT22;16482;51.046;4.498;2022-11-15T05:01:22;22.50;44.90
29539;DHT22;16482;51.046;4.498;2022-11-15T05:03:48;22.40;44.80
29539;DHT22;16482;51.046;4.498;2022-11-15T05:06:32;22.40;44.80
29539;DHT22;16482;51.046;4.498;2022-11-15T05:08:58;22.40;44.80
29539;DHT22;16482;51.046;4.498;2022-11-15T05:11:24;22.40;44.80
29539;DHT22;16482;51.046;4.498;2022-11-15T05:13:50;22.40;44.80
29539;DHT22;16482;51.046;4.498;2022-11-15T05:16:16;22.40;44.80
29539;DHT22;16482;51.046;4.498;2022-11-15T05:18:42;22.40;44.80
29539;DHT22;16482;51.046;4.498;2022-11-15T05:21:13;22.40;44.70
29539;DHT22;16482;51.046;4.498;2022-11-15T05:23:42;22.40;44.70
29539;DHT22;16482;51.046;4.498;2022-11-15T05:26:11;22.40;44.70
29539;DHT22;16482;51.046;4.498;2022-11-15T05:28:37;22.40;44.70
29539;DHT22;16482;51.046;4.498;2022-11-15T05:31:08;22.40;44.60
29539;DHT22;16482;51.046;4.498;2022-11-15T05:33:36;22.40;44.50
29539;DHT22;16482;51.046;4.498;2022-11-15T05:36:27;22.40;44.60
29539;DHT22;16482;51.046;4.498;2022-11-15T05:38:51;22.40;44.40
29539;DHT22;16482;51.046;4.498;2022-11-15T05:41:19;22.40;44.50
29539;DHT22;16482;51.046;4.498;2022-11-15T05:43:47;22.40;45.00
29539;DHT22;16482;51.046;4.498;2022-11-15T05:46:14;22.40;44.40
29539;DHT22;16482;51.046;4.498;2022-11-15T05:48:44;22.40;44.30
29539;DHT22;16482;51.046;4.498;2022-11-15T05:51:14;22.40;44.30
29539;DHT22;16482;51.046;4.498;2022-11-15T05:53:41;22.40;44.30
29539;DHT22;16482;51.046;4.498;2022-11-15T05:56:09;22.30;44.20
29539;DHT22;16482;51.046;4.498;2022-11-15T05:58:36;22.30;44.20
29539;DHT22;16482;51.046;4.498;2022-11-15T06:01:02;22.40;44.20
29539;DHT22;16482;51.046;4.498;2022-11-15T06:03:28;22.40;44.20
29539;DHT22;16482;51.046;4.498;2022-11-15T06:05:54;22.40;44.10
29539;DHT22;16482;51.046;4.498;2022-11-15T06:08:20;22.40;44.10
29539;DHT22;16482;51.046;4.498;2022-11-15T06:10:45;22.40;44.10
29539;DHT22;16482;51.046;4.498;2022-11-15T06:13:11;22.40;44.10
29539;DHT22;16482;51.046;4.498;2022-11-15T06:15:37;22.50;44.10
29539;DHT22;16482;51.046;4.498;2022-11-15T06:18:03;22.50;44.00
29539;DHT22;16482;51.046;4.498;2022-11-15T06:20:29;22.50;43.90
29539;DHT22;16482;51.046;4.498;2022-11-15T06:23:00;22.60;43.90
29539;DHT22;16482;51.046;4.498;2022-11-15T06:25:27;22.60;43.70
29539;DHT22;16482;51.046;4.498;2022-11-15T06:27:55;22.70;43.70
29539;DHT22;16482;51.046;4.498;2022-11-15T06:30:22;22.70;43.60
29539;DHT22;16482;51.046;4.498;2022-11-15T06:32:51;22.80;43.50
29539;DHT22;16482;51.046;4.498;2022-11-15T06:35:17;22.80;43.40
29539;DHT22;16482;51.046;4.498;2022-11-15T06:37:42;22.90;43.30
29539;DHT22;16482;51.046;4.498;2022-11-15T06:40:09;22.90;43.20
29539;DHT22;16482;51.046;4.498;2022-11-15T06:42:35;23.00;43.20
29539;DHT22;16482;51.046;4.498;2022-11-15T06:45:02;23.10;43.10
29539;DHT22;16482;51.046;4.498;2022-11-15T06:47:28;23.10;42.90
29539;DHT22;16482;51.046;4.498;2022-11-15T06:49:53;23.10;42.80
29539;DHT22;16482;51.046;4.498;2022-11-15T06:52:19;23.20;42.80
29539;DHT22;16482;51.046;4.498;2022-11-15T06:54:45;23.20;42.70
29539;DHT22;16482;51.046;4.498;2022-11-15T06:57:11;23.20;42.60
29539;DHT22;16482;51.046;4.498;2022-11-15T06:59:37;23.30;42.50
29539;DHT22;16482;51.046;4.498;2022-11-15T07:02:05;23.30;42.40
29539;DHT22;16482;51.046;4.498;2022-11-15T07:04:31;23.30;42.30
29539;DHT22;16482;51.046;4.498;2022-11-15T07:06:57;23.30;42.30
29539;DHT22;16482;51.046;4.498;2022-11-15T07:09:23;23.40;42.20
29539;DHT22;16482;51.046;4.498;2022-11-15T07:11:50;23.40;42.20
29539;DHT22;16482;51.046;4.498;2022-11-15T07:14:16;23.40;42.10
29539;DHT22;16482;51.046;4.498;2022-11-15T07:16:42;23.40;42.10
29539;DHT22;16482;51.046;4.498;2022-11-15T07:19:11;23.40;42.00
29539;DHT22;16482;51.046;4.498;2022-11-15T07:21:37;23.50;42.10
29539;DHT22;16482;51.046;4.498;2022-11-15T07:24:03;23.50;42.00
29539;DHT22;16482;51.046;4.498;2022-11-15T07:26:29;23.50;41.90
29539;DHT22;16482;51.046;4.498;2022-11-15T07:28:55;23.50;41.90
29539;DHT22;16482;51.046;4.498;2022-11-15T07:31:20;23.50;41.80
29539;DHT22;16482;51.046;4.498;2022-11-15T07:33:47;23.50;41.80
29539;DHT22;16482;51.046;4.498;2022-11-15T07:36:13;23.50;41.80
29539;DHT22;16482;51.046;4.498;2022-11-15T07:38:42;23.50;41.80
29539;DHT22;16482;51.046;4.498;2022-11-15T07:41:11;23.50;41.70
29539;DHT22;16482;51.046;4.498;2022-11-15T07:43:37;23.60;41.70
29539;DHT22;16482;51.046;4.498;2022-11-15T07:46:07;23.50;41.70
29539;DHT22;16482;51.046;4.498;2022-11-15T07:48:38;23.60;41.60
29539;DHT22;16482;51.046;4.498;2022-11-15T07:51:09;23.60;41.60
29539;DHT22;16482;51.046;4.498;2022-11-15T07:53:35;23.60;41.50
29539;DHT22;16482;51.046;4.498;2022-11-15T07:56:01;23.60;41.50
29539;DHT22;16482;51.046;4.498;2022-11-15T07:58:27;23.60;41.50
29539;DHT22;16482;51.046;4.498;2022-11-15T08:00:53;23.60;41.40
29539;DHT22;16482;51.046;4.498;2022-11-15T08:03:18;23.60;41.40
29539;DHT22;16482;51.046;4.498;2022-11-15T08:05:50;23.60;41.30
29539;DHT22;16482;51.046;4.498;2022-11-15T08:08:16;23.60;41.30
29539;DHT22;16482;51.046;4.498;2022-11-15T08:10:42;23.60;41.30
29539;DHT22;16482;51.046;4.498;2022-11-15T08:13:10;23.60;41.30
29539;DHT22;16482;51.046;4.498;2022-11-15T08:15:37;23.60;41.20
29539;DHT22;16482;51.046;4.498;2022-11-15T08:18:14;23.60;41.20
29539;DHT22;16482;51.046;4.498;2022-11-15T08:20:40;23.60;41.20
29539;DHT22;16482;51.046;4.498;2022-11-15T08:23:07;23.60;41.20
29539;DHT22;16482;51.046;4.498;2022-11-15T08:25:34;23.60;41.20
29539;DHT22;16482;51.046;4.498;2022-11-15T08:28:02;23.60;41.20
29539;DHT22;16482;51.046;4.498;2022-11-15T08:30:29;23.50;41.30
29539;DHT22;16482;51.046;4.498;2022-11-15T08:32:58;23.60;41.40
29539;DHT22;16482;51.046;4.498;2022-11-15T08:35:27;23.60;41.40
29539;DHT22;16482;51.046;4.498;2022-11-15T08:37:53;23.60;41.40
29539;DHT22;16482;51.046;4.498;2022-11-15T08:40:19;23.50;41.50
29539;DHT22;16482;51.046;4.498;2022-11-15T08:42:49;23.50;41.40
29539;DHT22;16482;51.046;4.498;2022-11-15T08:45:15;23.50;41.50
29539;DHT22;16482;51.046;4.498;2022-11-15T08:47:40;23.50;41.40
29539;DHT22;16482;51.046;4.498;2022-11-15T08:50:07;23.50;41.60
29539;DHT22;16482;51.046;4.498;2022-11-15T08:52:33;23.50;41.50
29539;DHT22;16482;51.046;4.498;2022-11-15T08:54:59;23.50;41.40
29539;DHT22;16482;51.046;4.498;2022-11-15T08:57:24;23.50;41.50
29539;DHT22;16482;51.046;4.498;2022-11-15T08:59:50;23.50;41.50
29539;DHT22;16482;51.046;4.498;2022-11-15T09:02:16;23.40;41.50
29539;DHT22;16482;51.046;4.498;2022-11-15T09:04:42;23.40;41.50
29539;DHT22;16482;51.046;4.498;2022-11-15T09:07:10;23.40;41.40
29539;DHT22;16482;51.046;4.498;2022-11-15T09:09:36;23.40;41.40
29539;DHT22;16482;51.046;4.498;2022-11-15T09:12:03;23.40;41.30
29539;DHT22;16482;51.046;4.498;2022-11-15T09:14:29;23.40;41.30
29539;DHT22;16482;51.046;4.498;2022-11-15T09:16:54;23.40;41.30
29539;DHT22;16482;51.046;4.498;2022-11-15T09:19:20;23.40;41.20
29539;DHT22;16482;51.046;4.498;2022-11-15T09:21:46;23.40;41.20
29539;DHT22;16482;51.046;4.498;2022-11-15T09:24:12;23.40;41.20
29539;DHT22;16482;51.046;4.498;2022-11-15T09:26:38;23.40;41.20
29539;DHT22;16482;51.046;4.498;2022-11-15T09:29:04;23.40;41.20
29539;DHT22;16482;51.046;4.498;2022-11-15T09:31:30;23.30;41.20
29539;DHT22;16482;51.046;4.498;2022-11-15T09:33:56;23.30;41.10
29539;DHT22;16482;51.046;4.498;2022-11-15T09:36:21;23.30;41.10
29539;DHT22;16482;51.046;4.498;2022-11-15T09:38:47;23.30;41.00
29539;DHT22;16482;51.046;4.498;2022-11-15T09:49:08;23.30;40.90
29539;DHT22;16482;51.046;4.498;2022-11-15T09:51:44;23.30;40.90
29539;DHT22;16482;51.046;4.498;2022-11-15T09:56:56;23.30;40.80
29539;DHT22;16482;51.046;4.498;2022-11-15T10:02:23;23.20;40.70
29539;DHT22;16482;51.046;4.498;2022-11-15T10:04:57;23.30;40.70
29539;DHT22;16482;51.046;4.498;2022-11-15T10:12:34;23.20;40.50
29539;DHT22;16482;51.046;4.498;2022-11-15T10:15:11;23.20;40.70
29539;DHT22;16482;51.046;4.498;2022-11-15T10:17:59;23.20;40.80
29539;DHT22;16482;51.046;4.498;2022-11-15T10:20:30;23.20;40.80
29539;DHT22;16482;51.046;4.498;2022-11-15T10:23:05;23.30;40.90
29539;DHT22;16482;51.046;4.498;2022-11-15T10:25:33;23.30;40.70
29539;DHT22;16482;51.046;4.498;2022-11-15T10:30:44;23.30;40.80
29539;DHT22;16482;51.046;4.498;2022-11-15T10:44:09;23.30;40.70
29539;DHT22;16482;51.046;4.498;2022-11-15T10:46:38;23.40;40.70
29539;DHT22;16482;51.046;4.498;2022-11-15T10:49:21;23.30;40.80
29539;DHT22;16482;51.046;4.498;2022-11-15T10:51:53;23.40;40.80
29539;DHT22;16482;51.046;4.498;2022-11-15T10:54:41;23.40;40.70
29539;DHT22;16482;51.046;4.498;2022-11-15T10:57:33;23.40;40.70
29539;DHT22;16482;51.046;4.498;2022-11-15T11:00:03;23.40;40.80
29539;DHT22;16482;51.046;4.498;2022-11-15T11:02:45;23.40;40.80
29539;DHT22;16482;51.046;4.498;2022-11-15T11:05:32;23.40;40.80
29539;DHT22;16482;51.046;4.498;2022-11-15T11:08:02;23.40;40.70
29539;DHT22;16482;51.046;4.498;2022-11-15T11:10:28;23.40;40.70
29539;DHT22;16482;51.046;4.498;2022-11-15T11:13:22;23.30;40.60
29539;DHT22;16482;51.046;4.498;2022-11-15T11:15:54;23.40;40.60
29539;DHT22;16482;51.046;4.498;2022-11-15T11:18:27;23.30;40.60
29539;DHT22;16482;51.046;4.498;2022-11-15T11:21:10;23.30;40.50
29539;DHT22;16482;51.046;4.498;2022-11-15T11:27:19;23.30;40.70
29539;DHT22;16482;51.046;4.498;2022-11-15T11:35:52;23.30;40.40
29539;DHT22;16482;51.046;4.498;2022-11-15T11:41:17;23.30;40.30
29539;DHT22;16482;51.046;4.498;2022-11-15T11:44:11;23.30;40.20
29539;DHT22;16482;51.046;4.498;2022-11-15T11:54:44;23.30;40.20
29539;DHT22;16482;51.046;4.498;2022-11-15T11:58:09;23.30;40.10
29539;DHT22;16482;51.046;4.498;2022-11-15T12:00:19;23.20;40.10
29539;DHT22;16482;51.046;4.498;2022-11-15T12:05:44;23.20;40.00
29539;DHT22;16482;51.046;4.498;2022-11-15T12:08:20;23.20;40.00
29539;DHT22;16482;51.046;4.498;2022-11-15T12:10:59;23.20;40.00
29539;DHT22;16482;51.046;4.498;2022-11-15T12:13:28;23.20;39.90
29539;DHT22;16482;51.046;4.498;2022-11-15T12:18:37;23.20;40.00
29539;DHT22;16482;51.046;4.498;2022-11-15T12:24:34;23.20;40.20
29539;DHT22;16482;51.046;4.498;2022-11-15T12:27:40;23.20;40.30
29539;DHT22;16482;51.046;4.498;2022-11-15T12:30:17;23.20;40.30
29539;DHT22;16482;51.046;4.498;2022-11-15T12:32:54;23.20;40.30
29539;DHT22;16482;51.046;4.498;2022-11-15T12:35:36;23.20;40.50
29539;DHT22;16482;51.046;4.498;2022-11-15T12:38:03;23.20;40.40
29539;DHT22;16482;51.046;4.498;2022-11-15T12:40:32;23.20;40.40
29539;DHT22;16482;51.046;4.498;2022-11-15T12:43:41;23.20;40.40
29539;DHT22;16482;51.046;4.498;2022-11-15T12:46:22;23.20;40.40
29539;DHT22;16482;51.046;4.498;2022-11-15T12:49:01;23.20;40.40
29539;DHT22;16482;51.046;4.498;2022-11-15T12:59:58;23.30;40.50
29539;DHT22;16482;51.046;4.498;2022-11-15T13:02:35;23.30;40.50
29539;DHT22;16482;51.046;4.498;2022-11-15T13:17:43;23.20;40.80
29539;DHT22;16482;51.046;4.498;2022-11-15T13:28:21;23.20;40.70
29539;DHT22;16482;51.046;4.498;2022-11-15T13:33:34;23.20;40.70
29539;DHT22;16482;51.046;4.498;2022-11-15T13:36:03;23.20;40.70
29539;DHT22;16482;51.046;4.498;2022-11-15T13:38:33;23.20;40.80
29539;DHT22;16482;51.046;4.498;2022-11-15T13:41:14;23.20;40.80
29539;DHT22;16482;51.046;4.498;2022-11-15T13:43:43;23.20;40.90
29539;DHT22;16482;51.046;4.498;2022-11-15T13:46:32;23.20;41.10
29539;DHT22;16482;51.046;4.498;2022-11-15T13:49:18;23.30;41.00
29539;DHT22;16482;51.046;4.498;2022-11-15T13:51:54;23.30;41.10
29539;DHT22;16482;51.046;4.498;2022-11-15T13:56:59;23.20;41.20
29539;DHT22;16482;51.046;4.498;2022-11-15T13:59:29;23.20;41.30
29539;DHT22;16482;51.046;4.498;2022-11-15T14:01:57;23.20;41.30
29539;DHT22;16482;51.046;4.498;2022-11-15T14:04:25;23.20;41.40
29539;DHT22;16482;51.046;4.498;2022-11-15T14:06:57;23.20;41.40
29539;DHT22;16482;51.046;4.498;2022-11-15T14:09:39;23.20;41.40
29539;DHT22;16482;51.046;4.498;2022-11-15T14:12:49;23.20;42.00
29539;DHT22;16482;51.046;4.498;2022-11-15T14:15:36;23.20;41.30
29539;DHT22;16482;51.046;4.498;2022-11-15T14:18:03;23.20;41.40
29539;DHT22;16482;51.046;4.498;2022-11-15T14:20:32;23.20;41.40
29539;DHT22;16482;51.046;4.498;2022-11-15T14:23:04;23.20;41.50
29539;DHT22;16482;51.046;4.498;2022-11-15T14:25:33;23.20;41.40
29539;DHT22;16482;51.046;4.498;2022-11-15T14:30:34;23.20;41.50
29539;DHT22;16482;51.046;4.498;2022-11-15T14:33:00;23.20;41.60
29539;DHT22;16482;51.046;4.498;2022-11-15T14:35:28;23.20;41.60
29539;DHT22;16482;51.046;4.498;2022-11-15T14:37:54;23.20;41.70
29539;DHT22;16482;51.046;4.498;2022-11-15T14:40:21;23.10;41.70
29539;DHT22;16482;51.046;4.498;2022-11-15T14:42:48;23.20;41.70
29539;DHT22;16482;51.046;4.498;2022-11-15T14:45:20;23.20;41.80
29539;DHT22;16482;51.046;4.498;2022-11-15T14:47:47;23.20;41.80
29539;DHT22;16482;51.046;4.498;2022-11-15T14:50:17;23.10;42.00
29539;DHT22;16482;51.046;4.498;2022-11-15T14:52:44;23.10;42.10
29539;DHT22;16482;51.046;4.498;2022-11-15T14:55:23;23.10;42.20
29539;DHT22;16482;51.046;4.498;2022-11-15T14:57:49;23.20;42.30
29539;DHT22;16482;51.046;4.498;2022-11-15T15:00:16;23.10;42.40
29539;DHT22;16482;51.046;4.498;2022-11-15T15:02:43;23.10;42.40
29539;DHT22;16482;51.046;4.498;2022-11-15T15:05:17;23.10;42.50
29539;DHT22;16482;51.046;4.498;2022-11-15T15:07:43;23.20;42.50
29539;DHT22;16482;51.046;4.498;2022-11-15T15:10:10;23.20;42.50
29539;DHT22;16482;51.046;4.498;2022-11-15T15:12:36;23.20;42.50
29539;DHT22;16482;51.046;4.498;2022-11-15T15:15:02;23.20;42.60
29539;DHT22;16482;51.046;4.498;2022-11-15T15:17:28;23.20;42.70
29539;DHT22;16482;51.046;4.498;2022-11-15T15:19:54;23.10;42.70
29539;DHT22;16482;51.046;4.498;2022-11-15T15:22:20;23.20;42.90
29539;DHT22;16482;51.046;4.498;2022-11-15T15:24:51;23.20;43.00
29539;DHT22;16482;51.046;4.498;2022-11-15T15:27:17;23.20;43.10
29539;DHT22;16482;51.046;4.498;2022-11-15T15:29:43;23.10;43.10
29539;DHT22;16482;51.046;4.498;2022-11-15T15:32:11;23.20;43.20
29539;DHT22;16482;51.046;4.498;2022-11-15T15:34:40;23.10;43.20
29539;DHT22;16482;51.046;4.498;2022-11-15T15:37:25;23.10;43.30
29539;DHT22;16482;51.046;4.498;2022-11-15T15:39:53;23.10;43.30
29539;DHT22;16482;51.046;4.498;2022-11-15T15:42:19;23.10;43.30
29539;DHT22;16482;51.046;4.498;2022-11-15T15:44:46;23.10;43.40
29539;DHT22;16482;51.046;4.498;2022-11-15T15:47:18;23.10;43.40
29539;DHT22;16482;51.046;4.498;2022-11-15T15:49:45;23.20;43.20
29539;DHT22;16482;51.046;4.498;2022-11-15T15:52:10;23.10;43.30
29539;DHT22;16482;51.046;4.498;2022-11-15T15:54:39;23.20;43.40
29539;DHT22;16482;51.046;4.498;2022-11-15T15:57:06;23.20;43.30
29539;DHT22;16482;51.046;4.498;2022-11-15T15:59:34;23.20;43.40
29539;DHT22;16482;51.046;4.498;2022-11-15T16:02:00;23.20;43.50
29539;DHT22;16482;51.046;4.498;2022-11-15T16:04:26;23.30;43.40
29539;DHT22;16482;51.046;4.498;2022-11-15T16:07:00;23.30;43.40
29539;DHT22;16482;51.046;4.498;2022-11-15T16:09:26;23.30;43.30
29539;DHT22;16482;51.046;4.498;2022-11-15T16:12:10;23.40;43.30
29539;DHT22;16482;51.046;4.498;2022-11-15T16:14:36;23.40;43.30
29539;DHT22;16482;51.046;4.498;2022-11-15T16:17:05;23.50;43.30
29539;DHT22;16482;51.046;4.498;2022-11-15T16:19:34;23.50;43.30
29539;DHT22;16482;51.046;4.498;2022-11-15T16:22:00;23.60;43.20
29539;DHT22;16482;51.046;4.498;2022-11-15T16:24:26;23.70;43.10
29539;DHT22;16482;51.046;4.498;2022-11-15T16:26:52;23.70;43.10
29539;DHT22;16482;51.046;4.498;2022-11-15T16:29:18;23.70;43.00
29539;DHT22;16482;51.046;4.498;2022-11-15T16:31:44;23.80;43.00
29539;DHT22;16482;51.046;4.498;2022-11-15T16:34:10;23.80;43.00
29539;DHT22;16482;51.046;4.498;2022-11-15T16:36:36;23.80;42.80
29539;DHT22;16482;51.046;4.498;2022-11-15T16:39:02;23.80;42.90
29539;DHT22;16482;51.046;4.498;2022-11-15T16:41:32;23.90;42.90
29539;DHT22;16482;51.046;4.498;2022-11-15T16:43:58;23.90;42.80
29539;DHT22;16482;51.046;4.498;2022-11-15T16:46:25;23.90;42.90
29539;DHT22;16482;51.046;4.498;2022-11-15T16:48:52;23.90;42.90
29539;DHT22;16482;51.046;4.498;2022-11-15T16:51:21;23.90;42.80
29539;DHT22;16482;51.046;4.498;2022-11-15T16:53:47;23.90;42.90
29539;DHT22;16482;51.046;4.498;2022-11-15T16:56:26;23.90;42.80
29539;DHT22;16482;51.046;4.498;2022-11-15T16:58:56;23.90;42.80
29539;DHT22;16482;51.046;4.498;2022-11-15T17:01:29;24.00;42.90
29539;DHT22;16482;51.046;4.498;2022-11-15T17:03:55;24.00;42.80
29539;DHT22;16482;51.046;4.498;2022-11-15T17:06:22;24.00;43.00
29539;DHT22;16482;51.046;4.498;2022-11-15T17:08:48;24.00;43.00
29539;DHT22;16482;51.046;4.498;2022-11-15T17:11:18;24.00;43.10
29539;DHT22;16482;51.046;4.498;2022-11-15T17:13:45;24.00;43.00
29539;DHT22;16482;51.046;4.498;2022-11-15T17:16:13;24.00;43.00
29539;DHT22;16482;51.046;4.498;2022-11-15T17:18:40;24.00;43.00
29539;DHT22;16482;51.046;4.498;2022-11-15T17:21:11;24.10;43.00
29539;DHT22;16482;51.046;4.498;2022-11-15T17:23:37;24.00;43.10
29539;DHT22;16482;51.046;4.498;2022-11-15T17:26:04;24.00;43.10
29539;DHT22;16482;51.046;4.498;2022-11-15T17:28:34;24.10;43.10
29539;DHT22;16482;51.046;4.498;2022-11-15T17:31:00;24.10;43.10
29539;DHT22;16482;51.046;4.498;2022-11-15T17:33:26;24.10;43.20
29539;DHT22;16482;51.046;4.498;2022-11-15T17:35:56;24.10;43.20
29539;DHT22;16482;51.046;4.498;2022-11-15T17:38:22;24.10;43.30
29539;DHT22;16482;51.046;4.498;2022-11-15T17:40:48;24.10;43.20
29539;DHT22;16482;51.046;4.498;2022-11-15T17:43:23;24.10;43.30
29539;DHT22;16482;51.046;4.498;2022-11-15T17:45:49;24.10;43.20
29539;DHT22;16482;51.046;4.498;2022-11-15T17:48:15;24.10;43.30
29539;DHT22;16482;51.046;4.498;2022-11-15T17:50:41;24.10;43.50
29539;DHT22;16482;51.046;4.498;2022-11-15T17:53:07;24.10;43.50